createdAt,value
2023-03-25T00:00:16.870Z,60.84
2023-03-25T00:03:57.732Z,55.35
2023-03-25T00:07:03.298Z,53.63
2023-03-25T00:10:32.388Z,56.11
2023-03-25T00:13:45.506Z,56.35
2023-03-25T00:17:03.232Z,58.57
2023-03-25T00:20:16.156Z,58.59
2023-03-25T00:23:21.938Z,63.82
2023-03-25T00:26:41.592Z,64.78
2023-03-25T00:29:46.931Z,57.05
2023-03-25T00:32:53.473Z,54.96
2023-03-25T00:36:12.084Z,55.45
2023-03-25T00:39:24.057Z,57.24
2023-03-25T00:42:50.562Z,59.12
2023-03-25T00:45:52.258Z,59.63
2023-03-25T00:49:07.631Z,59.99
2023-03-25T00:52:32.234Z,66.51
2023-03-25T00:55:42.689Z,66.27
2023-03-25T00:58:50.188Z,63.61
2023-03-25T01:02:02.878Z,56.88
2023-03-25T01:05:14.179Z,54.37
2023-03-25T01:08:07.954Z,55.97
2023-03-25T01:11:44.436Z,56.67
2023-03-25T01:15:02.191Z,58.47
2023-03-25T01:18:09.767Z,59.31
2023-03-25T01:21:34.347Z,65.45
2023-03-25T01:24:50.244Z,65.24
2023-03-25T01:28:14.127Z,58.05
2023-03-25T01:31:23.206Z,55.68
2023-03-25T01:34:43.747Z,56.03
2023-03-25T01:38:21.269Z,56.62
2023-03-25T01:41:39.136Z,58.54
2023-03-25T01:45:06.443Z,65.59
2023-03-25T01:48:53.356Z,68.63
2023-03-25T01:52:15.701Z,66.21
2023-03-25T01:55:49.131Z,58.35
2023-03-25T01:59:14.719Z,54.62
2023-03-25T02:02:36.885Z,54.62
2023-03-25T02:06:20.497Z,56.20
2023-03-25T02:09:53.899Z,56.80
2023-03-25T02:13:42.946Z,65.50
2023-03-25T02:17:23.049Z,68.81
2023-03-25T02:44:03.127Z,64.85
2023-03-25T02:47:34.665Z,65.18
2023-03-25T02:51:29.494Z,57.75
2023-03-25T02:55:11.584Z,54.98
2023-03-25T02:58:43.756Z,55.59
2023-03-25T03:02:01.273Z,56.71
2023-03-25T03:06:11.634Z,64.08
2023-03-25T03:10:03.588Z,68.72
2023-03-25T03:14:08.327Z,66.57
2023-03-25T03:33:24.721Z,59.22
2023-03-25T03:36:34.776Z,65.86
2023-03-25T03:40:09.818Z,68.87
2023-03-25T03:43:43.933Z,67.27
2023-03-25T03:47:02.800Z,65.43
2023-03-25T03:50:53.155Z,63.72
2023-03-25T03:54:35.091Z,56.78
2023-03-25T03:58:07.733Z,56.04
2023-03-25T04:02:09.062Z,56.79
2023-03-25T04:05:39.049Z,65.86
2023-03-25T04:09:12.007Z,66.88
2023-03-25T04:23:41.004Z,56.50
2023-03-25T04:27:21.978Z,58.58
2023-03-25T04:34:32.676Z,65.71
2023-03-25T04:38:26.148Z,62.52
2023-03-25T04:41:29.077Z,61.75
2023-03-25T04:45:07.642Z,57.04
2023-03-25T04:48:41.263Z,54.55
2023-03-25T04:51:54.345Z,55.70
2023-03-25T04:55:26.251Z,57.17
2023-03-25T04:58:49.309Z,64.86
2023-03-25T05:02:12.862Z,67.46
2023-03-25T05:05:20.196Z,65.56
2023-03-25T05:09:03.194Z,63.38
2023-03-25T05:12:37.271Z,56.75
2023-03-25T05:15:54.003Z,54.52
2023-03-25T05:19:28.952Z,56.10
2023-03-25T05:22:41.170Z,57.38
2023-03-25T05:25:56.948Z,63.83
2023-03-25T05:29:17.138Z,66.71
2023-03-25T05:32:41.531Z,65.00
2023-03-25T05:36:11.820Z,62.92
2023-03-25T05:39:36.502Z,55.91
2023-03-25T05:42:45.611Z,53.91
2023-03-25T05:45:59.215Z,54.68
2023-03-25T05:49:01.593Z,55.64
2023-03-25T05:51:43.794Z,57.45
2023-03-25T05:54:45.778Z,62.56
2023-03-25T05:57:39.944Z,66.99
2023-03-25T06:00:38.735Z,65.66
2023-03-25T06:03:40.164Z,63.57
2023-03-25T06:06:30.756Z,58.41
2023-03-25T06:09:43.748Z,55.92
2023-03-25T06:12:44.033Z,56.23
2023-03-25T06:15:40.839Z,57.60
2023-03-25T06:18:39.150Z,63.62
2023-03-25T06:21:33.544Z,66.76
2023-03-25T06:24:23.832Z,65.03
2023-03-25T06:27:07.379Z,62.08
2023-03-25T06:30:05.537Z,57.65
2023-03-25T06:33:03.393Z,54.54
2023-03-25T06:35:55.415Z,54.91
2023-03-25T06:38:55.558Z,56.73
2023-03-25T06:41:41.449Z,58.21
2023-03-25T06:44:33.685Z,62.52
2023-03-25T06:47:44.326Z,66.12
2023-03-25T06:50:25.525Z,64.06
2023-03-25T06:53:15.323Z,58.58
2023-03-25T06:56:12.677Z,55.24
2023-03-25T06:58:52.097Z,55.57
2023-03-25T07:01:44.934Z,57.57
2023-03-25T07:04:23.870Z,59.09
2023-03-25T07:07:10.885Z,63.45
2023-03-25T07:09:51.140Z,64.86
2023-03-25T07:12:31.762Z,62.52
2023-03-25T07:15:14.837Z,57.80
2023-03-25T07:18:00.653Z,56.40
2023-03-25T07:20:34.828Z,58.00
2023-03-25T07:23:11.089Z,59.67
2023-03-25T07:25:45.302Z,63.93
2023-03-25T07:28:34.568Z,65.54
2023-03-25T07:31:17.101Z,63.99
2023-03-25T07:33:49.039Z,60.96
2023-03-25T07:36:34.414Z,55.29
2023-03-25T07:39:06.170Z,55.25
2023-03-25T07:41:55.336Z,56.98
2023-03-25T07:44:53.103Z,58.29
2023-03-25T07:47:30.561Z,60.51
2023-03-25T07:50:27.545Z,63.22
2023-03-25T07:53:15.780Z,62.64
2023-03-25T07:56:12.930Z,58.80
2023-03-25T07:59:09.948Z,55.74
2023-03-25T08:02:04.909Z,56.94
2023-03-25T08:04:50.254Z,58.69
2023-03-25T08:07:44.641Z,59.92
2023-03-25T08:10:47.833Z,60.64
2023-03-25T08:13:48.054Z,64.07
2023-03-25T08:16:33.989Z,62.63
2023-03-25T08:19:22.697Z,56.02
2023-03-25T08:22:36.547Z,53.62
2023-03-25T08:25:16.091Z,54.02
2023-03-25T08:28:06.361Z,55.54
2023-03-25T08:30:50.022Z,56.16
2023-03-25T08:33:48.788Z,56.33
2023-03-25T08:36:36.928Z,57.15
2023-03-25T08:39:30.647Z,57.72
2023-03-25T08:42:16.996Z,58.47
2023-03-25T08:45:16.610Z,58.52
2023-03-25T08:47:51.206Z,58.71
2023-03-25T08:50:47.261Z,58.77
2023-03-25T08:53:29.661Z,58.95
2023-03-25T08:56:18.831Z,58.65
2023-03-25T08:58:56.114Z,57.78
2023-03-25T09:01:45.025Z,57.79
2023-03-25T09:04:25.634Z,56.66
2023-03-25T09:07:14.388Z,56.31
2023-03-25T09:09:51.985Z,55.82
2023-03-25T09:12:37.563Z,55.25
2023-03-25T09:15:22.737Z,55.18
2023-03-25T09:18:05.301Z,55.38
2023-03-25T09:20:41.425Z,55.81
2023-03-25T09:23:23.191Z,56.19
2023-03-25T09:25:57.613Z,56.25
2023-03-25T09:28:40.630Z,56.49
2023-03-25T09:31:20.706Z,57.05
2023-03-25T09:34:09.364Z,57.15
2023-03-25T09:36:54.499Z,58.52
2023-03-25T09:39:35.379Z,60.50
2023-03-25T09:42:50.850Z,64.79
2023-03-25T09:45:57.525Z,67.66
2023-03-25T09:48:50.102Z,59.38
2023-03-25T09:51:45.581Z,57.06
2023-03-25T09:54:27.823Z,56.58
2023-03-25T09:57:11.826Z,56.48
2023-03-25T09:59:49.933Z,56.72
2023-03-25T10:02:43.296Z,56.10
2023-03-25T10:05:53.761Z,56.34
2023-03-25T10:08:53.481Z,55.30
2023-03-25T10:11:37.215Z,55.73
2023-03-25T10:14:28.421Z,55.94
2023-03-25T10:17:37.366Z,56.52
2023-03-25T10:20:38.906Z,56.74
2023-03-25T10:23:27.063Z,56.77
2023-03-25T10:26:20.918Z,56.97
2023-03-25T10:29:05.176Z,56.29
2023-03-25T10:31:43.782Z,56.08
2023-03-25T10:34:21.424Z,54.72
2023-03-25T10:36:58.297Z,54.51
2023-03-25T10:39:34.410Z,54.69
2023-03-25T10:42:44.570Z,55.51
2023-03-25T10:45:18.791Z,53.30
2023-03-25T10:47:51.735Z,52.17
2023-03-25T10:50:23.269Z,51.44
2023-03-25T10:52:56.933Z,48.56
2023-03-25T10:55:29.013Z,48.39
2023-03-25T10:57:57.981Z,47.29
2023-03-25T11:00:34.443Z,45.41
2023-03-25T11:03:05.571Z,44.50
2023-03-25T11:05:34.368Z,45.22
2023-03-25T11:08:18.154Z,45.88
2023-03-25T11:10:57.752Z,44.31
2023-03-25T11:13:30.758Z,44.44
2023-03-25T11:16:02.562Z,43.69
2023-03-25T11:18:35.265Z,41.90
2023-03-25T11:21:08.661Z,42.09
2023-03-25T11:23:38.481Z,40.17
2023-03-25T11:26:13.115Z,40.86
2023-03-25T11:28:44.365Z,40.41
2023-03-25T11:31:16.483Z,40.88
2023-03-25T11:33:47.047Z,41.44
2023-03-25T11:36:25.661Z,41.46
2023-03-25T11:39:01.007Z,41.70
2023-03-25T11:41:33.972Z,40.56
2023-03-25T11:44:03.963Z,39.78
2023-03-25T11:46:32.305Z,39.50
2023-03-25T11:49:14.772Z,39.34
2023-03-25T11:51:45.403Z,38.98
2023-03-25T11:54:17.468Z,38.83
2023-03-25T11:56:49.363Z,39.61
2023-03-25T11:59:29.148Z,41.18
2023-03-25T12:02:17.227Z,42.82
2023-03-25T12:05:04.734Z,44.68
2023-03-25T12:07:48.920Z,45.97
2023-03-25T12:10:21.255Z,46.59
2023-03-25T12:13:32.134Z,47.33
2023-03-25T12:16:24.725Z,50.01
2023-03-25T12:19:20.079Z,54.95
2023-03-25T12:22:05.045Z,54.13
2023-03-25T12:25:14.591Z,55.20
2023-03-25T12:28:10.304Z,51.78
2023-03-25T12:31:13.715Z,51.29
2023-03-25T12:33:57.577Z,51.79
2023-03-25T12:37:14.047Z,51.77
2023-03-25T12:40:10.073Z,51.62
2023-03-25T12:42:52.682Z,51.10
2023-03-25T12:46:08.429Z,50.45
2023-03-25T12:49:41.563Z,50.89
2023-03-25T12:52:41.583Z,51.74
2023-03-25T12:55:32.281Z,52.10
2023-03-25T12:58:20.025Z,52.11
2023-03-25T13:01:36.412Z,52.37
2023-03-25T13:04:18.105Z,52.56
2023-03-25T13:06:59.074Z,52.21
2023-03-25T13:09:52.332Z,52.13
2023-03-25T13:12:49.898Z,52.26
2023-03-25T13:15:41.313Z,52.70
2023-03-25T13:18:20.806Z,52.77
2023-03-25T13:21:00.637Z,52.64
2023-03-25T13:23:40.035Z,53.15
2023-03-25T13:26:29.703Z,53.12
2023-03-25T13:29:03.916Z,53.42
2023-03-25T13:31:50.951Z,53.62
2023-03-25T13:34:36.514Z,53.53
2023-03-25T13:37:38.893Z,53.41
2023-03-25T13:40:33.885Z,53.16
2023-03-25T13:43:31.865Z,51.83
2023-03-25T13:46:10.164Z,51.30
2023-03-25T13:48:47.762Z,49.35
2023-03-25T13:51:16.753Z,49.47
2023-03-25T13:53:56.496Z,49.83
2023-03-25T13:56:34.308Z,49.96
2023-03-25T13:59:19.466Z,49.49
2023-03-25T14:02:18.361Z,49.87
2023-03-25T14:05:26.094Z,49.36
2023-03-25T14:08:01.878Z,49.74
2023-03-25T14:11:00.096Z,48.91
2023-03-25T14:13:36.150Z,48.87
2023-03-25T14:16:14.701Z,49.16
2023-03-25T14:19:14.187Z,49.60
2023-03-25T14:21:50.934Z,49.92
2023-03-25T14:24:32.393Z,50.36
2023-03-25T14:27:07.048Z,50.87
2023-03-25T14:29:48.532Z,51.46
2023-03-25T14:32:33.752Z,52.37
2023-03-25T14:35:36.708Z,53.14
2023-03-25T14:38:18.592Z,54.29
2023-03-25T14:41:03.406Z,55.42
2023-03-25T14:43:53.334Z,54.61
2023-03-25T14:46:23.721Z,53.39
2023-03-25T14:49:06.052Z,52.47
2023-03-25T14:51:42.725Z,51.44
2023-03-25T14:54:17.140Z,50.85
2023-03-25T14:57:05.923Z,50.75
2023-03-25T15:00:01.649Z,50.09
2023-03-25T15:02:33.912Z,49.10
2023-03-25T15:05:13.976Z,46.16
2023-03-25T15:07:48.765Z,46.65
2023-03-25T15:10:33.089Z,46.90
2023-03-25T15:13:06.611Z,47.48
2023-03-25T15:16:00.026Z,47.53
2023-03-25T15:18:37.666Z,46.82
2023-03-25T15:21:09.125Z,46.67
2023-03-25T15:23:43.757Z,46.39
2023-03-25T15:26:44.782Z,46.26
2023-03-25T15:29:31.793Z,46.90
2023-03-25T15:32:18.823Z,47.48
2023-03-25T15:35:23.144Z,48.24
2023-03-25T15:38:39.636Z,49.36
2023-03-25T15:41:31.151Z,50.24
2023-03-25T15:44:41.722Z,50.78
2023-03-25T15:47:31.401Z,49.85
2023-03-25T15:50:44.213Z,49.73
2023-03-25T15:54:00.314Z,48.98
2023-03-25T15:56:38.069Z,48.90
2023-03-25T15:59:38.841Z,48.85
2023-03-25T16:02:37.822Z,49.38
2023-03-25T16:05:16.146Z,50.28
2023-03-25T16:07:50.314Z,50.98
2023-03-25T16:10:39.831Z,51.76
2023-03-25T16:13:24.148Z,52.81
2023-03-25T16:16:15.149Z,52.83
2023-03-25T16:18:57.390Z,53.53
2023-03-25T16:21:42.871Z,54.42
2023-03-25T16:24:37.774Z,54.78
2023-03-25T16:27:50.178Z,55.12
2023-03-25T16:30:54.358Z,55.45
2023-03-25T16:33:47.856Z,55.73
2023-03-25T16:36:47.362Z,55.61
2023-03-25T16:39:28.436Z,55.78
2023-03-25T16:42:38.182Z,55.90
2023-03-25T16:45:20.496Z,56.14
2023-03-25T16:48:37.091Z,56.15
2023-03-25T16:51:37.113Z,56.03
2023-03-25T16:55:00.856Z,56.21
2023-03-25T16:58:03.360Z,55.93
2023-03-25T17:01:11.958Z,56.21
2023-03-25T17:04:09.337Z,56.15
2023-03-25T17:07:22.364Z,56.10
2023-03-25T17:10:33.339Z,56.25
2023-03-25T17:13:45.746Z,56.56
2023-03-25T17:16:33.490Z,56.65
2023-03-25T17:19:32.070Z,56.88
2023-03-25T17:22:28.702Z,57.12
2023-03-25T17:25:32.615Z,57.10
2023-03-25T17:29:00.306Z,57.25
2023-03-25T17:31:49.388Z,57.73
2023-03-25T17:34:43.058Z,57.52
2023-03-25T17:37:51.770Z,57.98
2023-03-25T17:40:42.843Z,58.39
2023-03-25T17:43:29.859Z,58.92
2023-03-25T17:46:13.275Z,59.17
2023-03-25T17:49:00.821Z,59.62
2023-03-25T17:51:50.794Z,59.75
2023-03-25T17:54:52.571Z,59.90
2023-03-25T17:57:50.830Z,60.44
2023-03-25T18:00:43.067Z,65.20
2023-03-25T18:03:31.515Z,66.84
2023-03-25T18:06:42.797Z,63.46
2023-03-25T18:09:34.215Z,59.24
2023-03-25T18:12:47.651Z,58.16
2023-03-25T18:15:55.636Z,58.90
2023-03-25T18:18:43.294Z,59.90
2023-03-25T18:22:10.026Z,66.02
2023-03-25T18:25:31.039Z,69.43
2023-03-25T18:28:29.621Z,67.13
2023-03-25T18:31:33.564Z,63.69
2023-03-25T18:34:45.018Z,59.08
2023-03-25T18:37:45.244Z,56.42
2023-03-25T18:40:57.656Z,56.25
2023-03-25T18:43:38.010Z,57.01
2023-03-25T18:46:38.238Z,58.75
2023-03-25T18:49:46.343Z,60.67
2023-03-25T18:53:05.217Z,65.84
2023-03-25T18:56:29.857Z,65.19
2023-03-25T18:59:35.653Z,57.99
2023-03-25T19:02:49.862Z,56.06
2023-03-25T19:05:57.094Z,57.88
2023-03-25T19:09:09.481Z,58.86
2023-03-25T19:12:24.063Z,60.16
2023-03-25T19:15:33.904Z,60.59
2023-03-25T19:18:49.896Z,61.39
2023-03-25T19:22:03.644Z,67.12
2023-03-25T19:25:13.492Z,65.36
2023-03-25T19:28:28.552Z,61.06
2023-03-25T19:31:51.823Z,55.94
2023-03-25T19:35:08.738Z,55.59
2023-03-25T19:38:26.989Z,56.61
2023-03-25T19:41:42.918Z,58.91
2023-03-25T19:44:44.325Z,60.07
2023-03-25T19:47:47.965Z,64.13
2023-03-25T19:50:53.240Z,64.35
2023-03-25T19:53:38.951Z,59.44
2023-03-25T19:56:47.166Z,56.80
2023-03-25T19:59:45.335Z,57.80
2023-03-25T20:02:40.124Z,58.72
2023-03-25T20:05:51.652Z,59.26
2023-03-25T20:08:43.447Z,60.23
2023-03-25T20:11:54.120Z,61.03
2023-03-25T20:15:11.954Z,64.42
2023-03-25T20:18:15.857Z,62.87
2023-03-25T20:21:27.454Z,57.36
2023-03-25T20:24:25.016Z,55.41
2023-03-25T20:27:36.126Z,55.80
2023-03-25T20:30:45.440Z,57.40
2023-03-25T20:33:50.928Z,58.50
2023-03-25T20:36:51.407Z,60.08
2023-03-25T20:39:51.629Z,60.78
2023-03-25T20:42:52.877Z,65.37
2023-03-25T20:45:47.263Z,65.68
2023-03-25T20:48:55.378Z,61.81
2023-03-25T20:52:11.568Z,56.47
2023-03-25T20:55:13.225Z,54.89
2023-03-25T20:58:12.939Z,56.05
2023-03-25T21:01:25.191Z,57.42
2023-03-25T21:04:27.414Z,59.08
2023-03-25T21:07:19.467Z,59.61
2023-03-25T21:10:28.779Z,60.43
2023-03-25T21:13:29.313Z,63.84
2023-03-25T21:16:26.404Z,63.56
2023-03-25T21:19:16.147Z,55.86
2023-03-25T21:22:33.258Z,55.02
2023-03-25T21:25:10.476Z,56.10
2023-03-25T21:27:59.401Z,57.27
2023-03-25T21:31:04.641Z,57.97
2023-03-25T21:33:52.648Z,59.10
2023-03-25T21:36:47.066Z,60.10
2023-03-25T21:39:47.608Z,60.61
2023-03-25T21:42:18.740Z,61.22
2023-03-25T21:45:21.828Z,61.82
2023-03-25T21:48:18.473Z,64.39
2023-03-25T21:51:42.776Z,65.68
2023-03-25T21:54:34.476Z,57.89
2023-03-25T21:57:30.774Z,55.26
2023-03-25T22:00:37.584Z,56.21
2023-03-25T22:03:45.642Z,57.60
2023-03-25T22:06:44.889Z,59.12
2023-03-25T22:09:42.757Z,59.39
2023-03-25T22:12:48.408Z,60.30
2023-03-25T22:15:46.069Z,64.42
2023-03-25T22:18:52.233Z,65.31
2023-03-25T22:21:47.131Z,59.71
2023-03-25T22:25:08.345Z,56.36
2023-03-25T22:28:00.680Z,56.98
2023-03-25T22:31:01.649Z,58.46
2023-03-25T22:34:23.896Z,59.44
2023-03-25T22:37:36.904Z,60.63
2023-03-25T22:40:35.673Z,65.71
2023-03-25T22:43:46.238Z,66.59
2023-03-25T22:46:45.899Z,62.17
2023-03-25T22:49:50.473Z,56.61
2023-03-25T22:52:47.009Z,54.21
2023-03-25T22:55:30.236Z,55.12
2023-03-25T22:58:31.174Z,56.96
2023-03-25T23:01:36.848Z,58.11
2023-03-25T23:04:39.488Z,59.08
2023-03-25T23:07:41.279Z,59.79
2023-03-25T23:10:47.952Z,60.76
2023-03-25T23:13:52.613Z,64.34
2023-03-25T23:17:07.865Z,65.38
2023-03-25T23:20:06.028Z,61.56
2023-03-25T23:23:06.053Z,56.95
2023-03-25T23:26:39.482Z,54.55
2023-03-25T23:29:50.734Z,55.07
2023-03-25T23:32:47.702Z,57.33
2023-03-25T23:36:00.579Z,59.34
2023-03-25T23:38:58.884Z,59.96
2023-03-25T23:42:05.656Z,64.89
2023-03-25T23:45:07.721Z,66.02
2023-03-25T23:48:14.084Z,62.53
2023-03-25T23:51:34.137Z,57.95
2023-03-25T23:54:54.367Z,55.57
2023-03-25T23:58:01.337Z,57.21
